sensor_id;sensor_type;location;lat;lon;timestamp;P1;durP1;ratioP1;P2;durP2;ratioP2
51692;SDS011;37777;53.066;21.638;2023-05-10T00:01:58;7.07;;;4.63;;
51692;SDS011;37777;53.066;21.638;2023-05-10T00:09:00;5.60;;;4.22;;
51692;SDS011;37777;53.066;21.638;2023-05-10T00:16:02;7.38;;;4.50;;
51692;SDS011;37777;53.066;21.638;2023-05-10T00:23:05;6.05;;;4.18;;
51692;SDS011;37777;53.066;21.638;2023-05-10T00:30:08;5.47;;;4.40;;
51692;SDS011;37777;53.066;21.638;2023-05-10T00:37:11;4.85;;;4.20;;
51692;SDS011;37777;53.066;21.638;2023-05-10T00:44:13;5.57;;;4.32;;
51692;SDS011;37777;53.066;21.638;2023-05-10T00:51:15;11.98;;;5.18;;
51692;SDS011;37777;53.066;21.638;2023-05-10T00:58:17;6.20;;;4.10;;
51692;SDS011;37777;53.066;21.638;2023-05-10T01:05:19;6.43;;;4.38;;
51692;SDS011;37777;53.066;21.638;2023-05-10T01:12:21;4.72;;;4.07;;
51692;SDS011;37777;53.066;21.638;2023-05-10T01:19:24;5.60;;;4.35;;
51692;SDS011;37777;53.066;21.638;2023-05-10T01:34:09;9.93;;;4.63;;
51692;SDS011;37777;53.066;21.638;2023-05-10T01:48:35;5.88;;;4.40;;
51692;SDS011;37777;53.066;21.638;2023-05-10T01:55:42;6.60;;;4.78;;
51692;SDS011;37777;53.066;21.638;2023-05-10T02:02:48;7.70;;;4.68;;
51692;SDS011;37777;53.066;21.638;2023-05-10T02:09:51;7.97;;;4.45;;
51692;SDS011;37777;53.066;21.638;2023-05-10T02:16:53;6.20;;;4.43;;
51692;SDS011;37777;53.066;21.638;2023-05-10T02:23:57;7.82;;;4.38;;
51692;SDS011;37777;53.066;21.638;2023-05-10T02:31:01;6.00;;;4.47;;
51692;SDS011;37777;53.066;21.638;2023-05-10T02:38:04;8.70;;;4.30;;
51692;SDS011;37777;53.066;21.638;2023-05-10T02:45:10;7.15;;;4.78;;
51692;SDS011;37777;53.066;21.638;2023-05-10T02:52:15;7.55;;;5.05;;
51692;SDS011;37777;53.066;21.638;2023-05-10T02:59:20;8.82;;;4.90;;
51692;SDS011;37777;53.066;21.638;2023-05-10T03:06:22;10.60;;;5.72;;
51692;SDS011;37777;53.066;21.638;2023-05-10T03:21:05;9.83;;;4.87;;
51692;SDS011;37777;53.066;21.638;2023-05-10T03:28:10;7.15;;;5.10;;
51692;SDS011;37777;53.066;21.638;2023-05-10T03:35:13;8.77;;;5.22;;
51692;SDS011;37777;53.066;21.638;2023-05-10T03:42:16;7.60;;;4.82;;
51692;SDS011;37777;53.066;21.638;2023-05-10T03:49:19;9.93;;;5.35;;
51692;SDS011;37777;53.066;21.638;2023-05-10T03:56:21;9.18;;;5.45;;
51692;SDS011;37777;53.066;21.638;2023-05-10T04:03:23;7.82;;;5.28;;
51692;SDS011;37777;53.066;21.638;2023-05-10T04:10:27;7.03;;;4.90;;
51692;SDS011;37777;53.066;21.638;2023-05-10T04:17:29;16.08;;;5.80;;
51692;SDS011;37777;53.066;21.638;2023-05-10T04:24:32;9.38;;;5.43;;
51692;SDS011;37777;53.066;21.638;2023-05-10T04:31:34;9.30;;;5.32;;
51692;SDS011;37777;53.066;21.638;2023-05-10T04:38:37;14.50;;;5.15;;
51692;SDS011;37777;53.066;21.638;2023-05-10T04:45:39;10.15;;;5.05;;
51692;SDS011;37777;53.066;21.638;2023-05-10T04:52:41;6.88;;;4.82;;
51692;SDS011;37777;53.066;21.638;2023-05-10T04:59:43;10.43;;;4.85;;
51692;SDS011;37777;53.066;21.638;2023-05-10T05:06:45;5.80;;;3.95;;
51692;SDS011;37777;53.066;21.638;2023-05-10T05:13:47;8.85;;;4.50;;
51692;SDS011;37777;53.066;21.638;2023-05-10T05:20:49;6.63;;;4.10;;
51692;SDS011;37777;53.066;21.638;2023-05-10T05:27:51;9.02;;;4.18;;
51692;SDS011;37777;53.066;21.638;2023-05-10T05:34:53;9.32;;;4.53;;
51692;SDS011;37777;53.066;21.638;2023-05-10T05:41:55;5.22;;;3.75;;
51692;SDS011;37777;53.066;21.638;2023-05-10T05:48:58;5.45;;;3.78;;
51692;SDS011;37777;53.066;21.638;2023-05-10T05:56:00;10.15;;;3.83;;
51692;SDS011;37777;53.066;21.638;2023-05-10T06:03:02;8.50;;;3.88;;
51692;SDS011;37777;53.066;21.638;2023-05-10T06:10:06;5.15;;;3.20;;
51692;SDS011;37777;53.066;21.638;2023-05-10T06:17:08;8.95;;;3.08;;
51692;SDS011;37777;53.066;21.638;2023-05-10T06:24:10;6.20;;;3.42;;
51692;SDS011;37777;53.066;21.638;2023-05-10T06:31:12;8.45;;;3.05;;
51692;SDS011;37777;53.066;21.638;2023-05-10T06:38:14;4.15;;;2.80;;
51692;SDS011;37777;53.066;21.638;2023-05-10T06:45:16;5.95;;;2.92;;
51692;SDS011;37777;53.066;21.638;2023-05-10T06:52:19;3.67;;;2.72;;
51692;SDS011;37777;53.066;21.638;2023-05-10T06:59:21;3.17;;;2.55;;
51692;SDS011;37777;53.066;21.638;2023-05-10T07:06:24;3.75;;;2.42;;
51692;SDS011;37777;53.066;21.638;2023-05-10T07:13:34;5.57;;;2.65;;
51692;SDS011;37777;53.066;21.638;2023-05-10T07:20:37;3.25;;;2.45;;
51692;SDS011;37777;53.066;21.638;2023-05-10T07:27:39;3.15;;;2.40;;
51692;SDS011;37777;53.066;21.638;2023-05-10T07:34:41;6.07;;;2.53;;
51692;SDS011;37777;53.066;21.638;2023-05-10T07:41:43;2.70;;;2.33;;
51692;SDS011;37777;53.066;21.638;2023-05-10T07:48:45;4.75;;;2.90;;
51692;SDS011;37777;53.066;21.638;2023-05-10T07:55:51;9.75;;;3.00;;
51692;SDS011;37777;53.066;21.638;2023-05-10T08:02:53;4.47;;;2.17;;
51692;SDS011;37777;53.066;21.638;2023-05-10T08:09:55;3.42;;;2.72;;
51692;SDS011;37777;53.066;21.638;2023-05-10T08:16:57;5.15;;;2.70;;
51692;SDS011;37777;53.066;21.638;2023-05-10T08:23:59;10.75;;;2.60;;
51692;SDS011;37777;53.066;21.638;2023-05-10T08:31:01;4.38;;;2.50;;
51692;SDS011;37777;53.066;21.638;2023-05-10T08:38:03;5.43;;;2.35;;
51692;SDS011;37777;53.066;21.638;2023-05-10T08:45:07;5.90;;;2.40;;
51692;SDS011;37777;53.066;21.638;2023-05-10T08:52:09;4.63;;;2.30;;
51692;SDS011;37777;53.066;21.638;2023-05-10T08:59:14;5.55;;;2.42;;
51692;SDS011;37777;53.066;21.638;2023-05-10T09:06:17;8.40;;;2.70;;
51692;SDS011;37777;53.066;21.638;2023-05-10T09:13:20;4.35;;;2.50;;
51692;SDS011;37777;53.066;21.638;2023-05-10T09:20:24;6.93;;;1.90;;
51692;SDS011;37777;53.066;21.638;2023-05-10T09:27:26;7.25;;;2.15;;
51692;SDS011;37777;53.066;21.638;2023-05-10T09:34:29;4.88;;;2.17;;
51692;SDS011;37777;53.066;21.638;2023-05-10T09:41:33;6.75;;;2.10;;
51692;SDS011;37777;53.066;21.638;2023-05-10T09:48:34;3.17;;;2.10;;
51692;SDS011;37777;53.066;21.638;2023-05-10T09:55:44;2.57;;;2.20;;
51692;SDS011;37777;53.066;21.638;2023-05-10T10:02:53;2.97;;;2.15;;
51692;SDS011;37777;53.066;21.638;2023-05-10T10:17:00;3.10;;;1.98;;
51692;SDS011;37777;53.066;21.638;2023-05-10T10:24:05;3.33;;;2.00;;
51692;SDS011;37777;53.066;21.638;2023-05-10T10:46:10;5.47;;;1.90;;
51692;SDS011;37777;53.066;21.638;2023-05-10T10:53:17;4.50;;;2.00;;
51692;SDS011;37777;53.066;21.638;2023-05-10T11:00:35;3.10;;;2.55;;
51692;SDS011;37777;53.066;21.638;2023-05-10T11:07:51;2.17;;;1.98;;
51692;SDS011;37777;53.066;21.638;2023-05-10T11:14:57;2.47;;;1.90;;
51692;SDS011;37777;53.066;21.638;2023-05-10T11:29:10;3.22;;;1.90;;
51692;SDS011;37777;53.066;21.638;2023-05-10T11:36:16;5.72;;;1.85;;
51692;SDS011;37777;53.066;21.638;2023-05-10T11:43:29;3.80;;;2.08;;
51692;SDS011;37777;53.066;21.638;2023-05-10T11:50:35;2.13;;;1.92;;
51692;SDS011;37777;53.066;21.638;2023-05-10T11:57:38;3.90;;;2.30;;
51692;SDS011;37777;53.066;21.638;2023-05-10T12:04:40;2.47;;;1.90;;
51692;SDS011;37777;53.066;21.638;2023-05-10T12:11:43;2.50;;;1.90;;
51692;SDS011;37777;53.066;21.638;2023-05-10T12:18:45;4.40;;;2.10;;
51692;SDS011;37777;53.066;21.638;2023-05-10T12:25:50;1.77;;;1.67;;
51692;SDS011;37777;53.066;21.638;2023-05-10T12:33:07;7.63;;;1.95;;
51692;SDS011;37777;53.066;21.638;2023-05-10T12:40:13;3.20;;;2.00;;
51692;SDS011;37777;53.066;21.638;2023-05-10T12:47:16;6.68;;;1.90;;
51692;SDS011;37777;53.066;21.638;2023-05-10T12:54:18;3.60;;;2.15;;
51692;SDS011;37777;53.066;21.638;2023-05-10T13:01:20;3.85;;;1.98;;
51692;SDS011;37777;53.066;21.638;2023-05-10T13:08:22;2.95;;;2.03;;
51692;SDS011;37777;53.066;21.638;2023-05-10T13:15:25;2.03;;;1.90;;
51692;SDS011;37777;53.066;21.638;2023-05-10T13:22:27;5.88;;;1.80;;
51692;SDS011;37777;53.066;21.638;2023-05-10T13:29:40;6.35;;;1.65;;
51692;SDS011;37777;53.066;21.638;2023-05-10T13:36:45;2.42;;;1.80;;
51692;SDS011;37777;53.066;21.638;2023-05-10T13:43:47;4.65;;;2.00;;
51692;SDS011;37777;53.066;21.638;2023-05-10T13:50:50;4.53;;;2.00;;
51692;SDS011;37777;53.066;21.638;2023-05-10T13:57:52;5.38;;;1.80;;
51692;SDS011;37777;53.066;21.638;2023-05-10T14:04:54;3.03;;;1.80;;
51692;SDS011;37777;53.066;21.638;2023-05-10T14:11:56;3.70;;;2.10;;
51692;SDS011;37777;53.066;21.638;2023-05-10T14:18:58;7.75;;;2.10;;
51692;SDS011;37777;53.066;21.638;2023-05-10T14:26:00;2.42;;;1.90;;
51692;SDS011;37777;53.066;21.638;2023-05-10T14:33:03;5.47;;;1.88;;
51692;SDS011;37777;53.066;21.638;2023-05-10T14:40:05;3.03;;;2.00;;
51692;SDS011;37777;53.066;21.638;2023-05-10T14:47:08;3.63;;;2.22;;
51692;SDS011;37777;53.066;21.638;2023-05-10T14:54:12;2.00;;;1.80;;
51692;SDS011;37777;53.066;21.638;2023-05-10T15:01:14;2.45;;;1.73;;
51692;SDS011;37777;53.066;21.638;2023-05-10T15:08:16;5.00;;;1.90;;
51692;SDS011;37777;53.066;21.638;2023-05-10T15:15:18;2.78;;;2.28;;
51692;SDS011;37777;53.066;21.638;2023-05-10T15:22:21;6.80;;;1.95;;
51692;SDS011;37777;53.066;21.638;2023-05-10T15:29:23;2.65;;;2.05;;
51692;SDS011;37777;53.066;21.638;2023-05-10T15:36:25;2.03;;;1.83;;
51692;SDS011;37777;53.066;21.638;2023-05-10T15:43:27;2.22;;;2.03;;
51692;SDS011;37777;53.066;21.638;2023-05-10T15:50:30;4.85;;;2.20;;
51692;SDS011;37777;53.066;21.638;2023-05-10T15:57:31;2.78;;;2.30;;
51692;SDS011;37777;53.066;21.638;2023-05-10T16:04:36;6.68;;;2.05;;
51692;SDS011;37777;53.066;21.638;2023-05-10T16:11:41;2.17;;;1.98;;
51692;SDS011;37777;53.066;21.638;2023-05-10T16:18:43;6.95;;;1.95;;
51692;SDS011;37777;53.066;21.638;2023-05-10T16:25:45;3.05;;;1.85;;
51692;SDS011;37777;53.066;21.638;2023-05-10T16:32:47;2.22;;;2.03;;
51692;SDS011;37777;53.066;21.638;2023-05-10T16:39:50;4.63;;;2.00;;
51692;SDS011;37777;53.066;21.638;2023-05-10T16:46:52;3.72;;;2.53;;
51692;SDS011;37777;53.066;21.638;2023-05-10T16:53:55;2.10;;;1.90;;
51692;SDS011;37777;53.066;21.638;2023-05-10T17:00:57;2.45;;;2.00;;
51692;SDS011;37777;53.066;21.638;2023-05-10T17:07:59;3.35;;;2.50;;
51692;SDS011;37777;53.066;21.638;2023-05-10T17:15:01;4.63;;;2.20;;
51692;SDS011;37777;53.066;21.638;2023-05-10T17:22:04;6.38;;;2.17;;
51692;SDS011;37777;53.066;21.638;2023-05-10T17:29:06;2.63;;;2.35;;
51692;SDS011;37777;53.066;21.638;2023-05-10T17:36:08;6.35;;;2.22;;
51692;SDS011;37777;53.066;21.638;2023-05-10T17:43:10;2.10;;;1.90;;
51692;SDS011;37777;53.066;21.638;2023-05-10T17:50:13;6.07;;;2.50;;
51692;SDS011;37777;53.066;21.638;2023-05-10T17:57:15;3.80;;;2.30;;
51692;SDS011;37777;53.066;21.638;2023-05-10T18:04:18;2.60;;;2.40;;
51692;SDS011;37777;53.066;21.638;2023-05-10T18:11:20;5.00;;;2.58;;
51692;SDS011;37777;53.066;21.638;2023-05-10T18:18:23;19.42;;;6.70;;
51692;SDS011;37777;53.066;21.638;2023-05-10T18:25:26;10.77;;;4.43;;
51692;SDS011;37777;53.066;21.638;2023-05-10T18:32:27;4.35;;;3.20;;
51692;SDS011;37777;53.066;21.638;2023-05-10T18:39:30;6.50;;;3.15;;
51692;SDS011;37777;53.066;21.638;2023-05-10T18:46:32;10.82;;;3.50;;
51692;SDS011;37777;53.066;21.638;2023-05-10T18:53:34;5.28;;;3.20;;
51692;SDS011;37777;53.066;21.638;2023-05-10T19:00:37;15.45;;;7.47;;
51692;SDS011;37777;53.066;21.638;2023-05-10T19:07:40;7.18;;;4.45;;
51692;SDS011;37777;53.066;21.638;2023-05-10T19:14:44;15.10;;;4.82;;
51692;SDS011;37777;53.066;21.638;2023-05-10T19:21:50;8.07;;;3.92;;
51692;SDS011;37777;53.066;21.638;2023-05-10T19:28:57;7.38;;;3.53;;
51692;SDS011;37777;53.066;21.638;2023-05-10T19:36:00;6.32;;;3.42;;
51692;SDS011;37777;53.066;21.638;2023-05-10T19:43:02;8.07;;;4.18;;
51692;SDS011;37777;53.066;21.638;2023-05-10T19:50:06;6.25;;;3.70;;
51692;SDS011;37777;53.066;21.638;2023-05-10T19:57:09;7.45;;;4.25;;
51692;SDS011;37777;53.066;21.638;2023-05-10T20:04:14;11.50;;;5.03;;
51692;SDS011;37777;53.066;21.638;2023-05-10T20:11:18;12.55;;;4.20;;
51692;SDS011;37777;53.066;21.638;2023-05-10T20:18:20;8.15;;;5.00;;
51692;SDS011;37777;53.066;21.638;2023-05-10T20:25:23;6.72;;;4.30;;
51692;SDS011;37777;53.066;21.638;2023-05-10T20:32:25;9.48;;;5.18;;
51692;SDS011;37777;53.066;21.638;2023-05-10T20:39:27;6.82;;;3.92;;
51692;SDS011;37777;53.066;21.638;2023-05-10T20:46:30;5.20;;;3.33;;
51692;SDS011;37777;53.066;21.638;2023-05-10T20:53:33;8.27;;;4.00;;
51692;SDS011;37777;53.066;21.638;2023-05-10T21:00:35;16.00;;;3.85;;
51692;SDS011;37777;53.066;21.638;2023-05-10T21:07:37;8.50;;;4.93;;
51692;SDS011;37777;53.066;21.638;2023-05-10T21:14:40;10.20;;;5.22;;
51692;SDS011;37777;53.066;21.638;2023-05-10T21:21:45;10.45;;;5.90;;
51692;SDS011;37777;53.066;21.638;2023-05-10T21:28:51;11.30;;;5.90;;
51692;SDS011;37777;53.066;21.638;2023-05-10T21:35:53;9.88;;;4.97;;
51692;SDS011;37777;53.066;21.638;2023-05-10T21:42:55;7.93;;;4.55;;
51692;SDS011;37777;53.066;21.638;2023-05-10T21:49:58;8.73;;;5.07;;
51692;SDS011;37777;53.066;21.638;2023-05-10T21:57:00;6.18;;;4.72;;
51692;SDS011;37777;53.066;21.638;2023-05-10T22:04:02;7.55;;;5.03;;
51692;SDS011;37777;53.066;21.638;2023-05-10T22:11:04;9.00;;;5.78;;
51692;SDS011;37777;53.066;21.638;2023-05-10T22:18:06;8.43;;;5.32;;
51692;SDS011;37777;53.066;21.638;2023-05-10T22:25:10;9.82;;;5.05;;
51692;SDS011;37777;53.066;21.638;2023-05-10T22:32:12;10.05;;;4.93;;
51692;SDS011;37777;53.066;21.638;2023-05-10T22:39:13;8.45;;;5.18;;
51692;SDS011;37777;53.066;21.638;2023-05-10T22:46:16;13.85;;;5.80;;
51692;SDS011;37777;53.066;21.638;2023-05-10T22:53:18;15.05;;;6.20;;
51692;SDS011;37777;53.066;21.638;2023-05-10T23:00:20;10.90;;;6.15;;
51692;SDS011;37777;53.066;21.638;2023-05-10T23:07:22;12.95;;;5.70;;
51692;SDS011;37777;53.066;21.638;2023-05-10T23:14:24;12.45;;;6.18;;
51692;SDS011;37777;53.066;21.638;2023-05-10T23:21:26;13.00;;;5.95;;
51692;SDS011;37777;53.066;21.638;2023-05-10T23:28:32;10.68;;;5.68;;
51692;SDS011;37777;53.066;21.638;2023-05-10T23:35:34;9.35;;;5.63;;
51692;SDS011;37777;53.066;21.638;2023-05-10T23:42:36;8.27;;;5.38;;
51692;SDS011;37777;53.066;21.638;2023-05-10T23:49:38;10.15;;;5.50;;
51692;SDS011;37777;53.066;21.638;2023-05-10T23:56:42;8.93;;;5.47;;
